createdAt,value
2018-06-18T00:01:16.621Z,69.01
2018-06-18T00:03:44.904Z,69.63
2018-06-18T00:06:12.971Z,70.48
2018-06-18T00:08:41.076Z,69.93
2018-06-18T00:11:09.157Z,70.15
2018-06-18T00:13:37.263Z,70.38
2018-06-18T00:16:05.503Z,71.14
2018-06-18T00:18:33.624Z,70.80
2018-06-18T00:21:01.716Z,71.42
2018-06-18T00:23:29.873Z,71.04
2018-06-18T00:25:59.068Z,72.14
2018-06-18T00:28:27.722Z,71.53
2018-06-18T00:30:55.776Z,71.89
2018-06-18T00:33:23.852Z,71.33
2018-06-18T00:35:51.938Z,71.87
2018-06-18T00:38:20.281Z,72.73
2018-06-18T00:40:48.355Z,72.50
2018-06-18T00:43:16.431Z,71.76
2018-06-18T00:45:44.521Z,71.53
2018-06-18T00:48:12.591Z,71.87
2018-06-18T00:50:40.715Z,71.42
2018-06-18T00:53:08.783Z,70.83
2018-06-18T00:55:48.344Z,71.43
2018-06-18T00:58:16.424Z,71.78
2018-06-18T01:00:44.503Z,71.12
2018-06-18T01:03:12.574Z,71.45
2018-06-18T01:05:41.611Z,72.85
2018-06-18T01:08:09.732Z,72.72
2018-06-18T01:10:37.963Z,73.18
2018-06-18T01:13:06.216Z,73.80
2018-06-18T01:15:34.352Z,73.76
2018-06-18T01:18:02.456Z,73.13
2018-06-18T01:20:30.539Z,72.89
2018-06-18T01:23:26.464Z,73.36
2018-06-18T01:25:54.566Z,72.46
2018-06-18T01:28:22.660Z,72.31
2018-06-18T01:30:50.760Z,72.46
2018-06-18T01:33:18.843Z,72.26
2018-06-18T01:35:46.942Z,72.40
2018-06-18T01:38:15.029Z,71.93
2018-06-18T01:40:43.224Z,72.57
2018-06-18T01:43:11.398Z,72.01
2018-06-18T01:45:40.297Z,72.39
2018-06-18T01:48:09.273Z,72.36
2018-06-18T01:50:37.349Z,72.83
2018-06-18T01:53:05.591Z,73.43
2018-06-18T01:55:34.416Z,73.10
2018-06-18T01:58:02.731Z,73.58
2018-06-18T02:00:31.255Z,73.04
2018-06-18T02:02:59.391Z,73.31
2018-06-18T02:05:27.508Z,73.57
2018-06-18T02:07:55.620Z,72.37
2018-06-18T02:10:24.418Z,74.08
2018-06-18T02:12:52.536Z,74.18
2018-06-18T02:15:20.746Z,73.48
2018-06-18T02:17:48.920Z,73.35
2018-06-18T02:20:17.004Z,72.74
2018-06-18T02:22:45.233Z,73.12
2018-06-18T02:25:13.360Z,73.97
2018-06-18T02:27:47.476Z,74.48
2018-06-18T02:30:20.873Z,74.11
2018-06-18T02:32:54.688Z,74.65
2018-06-18T02:35:28.191Z,75.15
2018-06-18T02:38:01.605Z,73.99
2018-06-18T02:40:35.000Z,73.33
2018-06-18T02:43:03.177Z,74.33
2018-06-18T02:45:31.402Z,74.83
2018-06-18T02:47:59.680Z,74.77
2018-06-18T02:50:27.880Z,74.43
2018-06-18T02:52:55.976Z,74.08
2018-06-18T02:55:24.256Z,73.07
2018-06-18T02:57:52.642Z,73.84
2018-06-18T03:00:21.225Z,75.12
2018-06-18T03:02:50.924Z,74.92
2018-06-18T03:05:19.160Z,74.95
2018-06-18T03:07:47.387Z,74.83
2018-06-18T03:10:15.457Z,75.86
2018-06-18T03:12:43.533Z,74.60
2018-06-18T03:15:11.641Z,74.28
2018-06-18T03:17:39.780Z,73.66
2018-06-18T03:20:13.203Z,73.84
2018-06-18T03:22:46.592Z,74.12
2018-06-18T03:25:20.079Z,75.00
2018-06-18T03:27:53.516Z,74.43
2018-06-18T03:30:22.821Z,75.19
2018-06-18T03:32:51.132Z,74.56
2018-06-18T03:35:19.362Z,74.53
2018-06-18T03:37:47.639Z,75.36
2018-06-18T03:40:15.790Z,74.50
2018-06-18T03:42:44.528Z,76.45
2018-06-18T03:45:16.556Z,76.08
2018-06-18T03:47:44.687Z,74.17
2018-06-18T03:50:12.791Z,73.88
2018-06-18T03:52:40.868Z,73.71
2018-06-18T03:55:17.308Z,73.20
2018-06-18T03:57:45.880Z,74.08
2018-06-18T04:00:14.116Z,74.44
2018-06-18T04:02:59.062Z,75.18
2018-06-18T04:05:33.950Z,74.75
2018-06-18T04:08:08.530Z,74.58
2018-06-18T04:10:43.128Z,74.73
2018-06-18T04:13:11.522Z,75.18
2018-06-18T04:15:39.651Z,74.24
2018-06-18T04:18:07.790Z,73.30
2018-06-18T04:20:55.008Z,72.27
2018-06-18T04:23:23.084Z,67.34
2018-06-18T04:25:51.246Z,61.44
2018-06-18T04:28:19.340Z,57.73
2018-06-18T04:30:47.477Z,52.54
2018-06-18T04:33:18.760Z,49.49
2018-06-18T04:35:47.019Z,48.29
2018-06-18T04:38:15.171Z,45.75
2018-06-18T04:40:43.365Z,43.05
2018-06-18T04:43:16.836Z,42.59
2018-06-18T04:45:46.956Z,41.10
2018-06-18T04:48:20.408Z,39.96
2018-06-18T04:50:53.739Z,39.48
2018-06-18T04:53:21.827Z,38.92
2018-06-18T04:55:49.934Z,39.22
2018-06-18T04:58:18.328Z,41.88
2018-06-18T05:01:21.078Z,47.94
2018-06-18T05:03:49.224Z,51.69
2018-06-18T05:06:20.232Z,57.44
2018-06-18T05:10:56.621Z,61.16
2018-06-18T05:13:24.740Z,63.33
2018-06-18T05:15:53.953Z,62.88
2018-06-18T05:18:22.316Z,62.85
2018-06-18T05:20:50.893Z,63.65
2018-06-18T05:23:19.845Z,63.77
2018-06-18T05:25:54.892Z,63.82
2018-06-18T05:28:23.876Z,64.97
2018-06-18T05:30:55.116Z,65.72
2018-06-18T05:33:23.372Z,64.04
2018-06-18T05:35:53.259Z,65.52
2018-06-18T05:38:30.572Z,63.10
2018-06-18T05:40:59.560Z,64.03
2018-06-18T05:43:27.867Z,64.09
2018-06-18T05:45:58.112Z,64.48
2018-06-18T05:48:26.252Z,63.85
2018-06-18T05:50:54.348Z,65.16
2018-06-18T05:53:22.448Z,63.62
2018-06-18T05:55:50.577Z,63.16
2018-06-18T05:58:18.655Z,63.70
2018-06-18T06:00:47.145Z,64.21
2018-06-18T06:03:15.223Z,63.78
2018-06-18T06:05:44.333Z,64.26
2018-06-18T06:08:12.407Z,63.90
2018-06-18T06:10:40.676Z,61.60
2018-06-18T06:13:10.164Z,60.31
2018-06-18T06:15:38.280Z,61.64
2018-06-18T06:18:07.028Z,62.17
2018-06-18T06:20:36.076Z,59.84
2018-06-18T06:23:04.271Z,59.58
2018-06-18T06:25:32.459Z,58.71
2018-06-18T06:28:00.580Z,60.02
2018-06-18T06:30:28.688Z,58.69
2018-06-18T06:32:57.615Z,58.85
2018-06-18T06:35:28.956Z,55.41
2018-06-18T06:37:57.307Z,55.43
2018-06-18T06:40:25.913Z,56.76
2018-06-18T06:42:54.032Z,55.11
2018-06-18T06:45:23.238Z,56.06
2018-06-18T06:47:51.527Z,56.49
2018-06-18T06:50:21.561Z,56.97
2018-06-18T06:52:49.654Z,56.76
2018-06-18T06:55:18.357Z,51.87
2018-06-18T06:57:46.495Z,51.50
2018-06-18T07:00:14.573Z,50.99
2018-06-18T07:02:43.256Z,49.13
2018-06-18T07:05:11.552Z,49.23
2018-06-18T07:07:39.658Z,51.89
2018-06-18T07:10:08.155Z,51.62
2018-06-18T07:12:36.584Z,50.56
2018-06-18T07:15:04.800Z,50.56
2018-06-18T07:17:33.272Z,48.72
2018-06-18T07:20:01.986Z,54.28
2018-06-18T07:22:30.104Z,52.98
2018-06-18T07:24:58.140Z,49.82
2018-06-18T07:27:26.216Z,50.85
2018-06-18T07:29:54.302Z,49.21
2018-06-18T07:32:22.489Z,51.86
2018-06-18T07:34:50.844Z,52.91
2018-06-18T07:37:18.931Z,53.04
2018-06-18T07:39:47.662Z,53.43
2018-06-18T07:42:16.686Z,51.89
2018-06-18T07:44:45.725Z,53.11
2018-06-18T07:47:13.800Z,51.15
2018-06-18T07:49:42.789Z,51.04
2018-06-18T07:52:10.876Z,52.15
2018-06-18T07:54:39.208Z,51.94
2018-06-18T07:57:07.300Z,49.34
2018-06-18T07:59:35.479Z,53.76
2018-06-18T08:02:05.746Z,51.29
2018-06-18T08:04:33.825Z,51.28
2018-06-18T08:07:01.935Z,50.40
2018-06-18T08:09:30.436Z,51.03
2018-06-18T08:11:58.704Z,52.37
2018-06-18T08:14:26.781Z,51.28
2018-06-18T08:16:54.900Z,51.04
2018-06-18T08:19:22.989Z,50.86
2018-06-18T08:21:51.160Z,49.80
2018-06-18T08:24:19.254Z,49.62
2018-06-18T08:26:47.324Z,50.61
2018-06-18T08:29:15.407Z,51.70
2018-06-18T08:31:44.649Z,52.81
2018-06-18T08:34:14.576Z,51.05
2018-06-18T08:36:42.871Z,52.40
2018-06-18T08:39:11.699Z,52.99
2018-06-18T08:41:40.455Z,52.65
2018-06-18T08:44:09.381Z,53.36
2018-06-18T08:46:37.701Z,50.36
2018-06-18T08:49:07.236Z,52.78
2018-06-18T08:51:41.024Z,50.59
2018-06-18T08:54:14.643Z,49.21
2018-06-18T08:56:48.109Z,49.51
2018-06-18T08:59:21.577Z,50.40
2018-06-18T09:01:51.316Z,50.71
2018-06-18T09:04:24.760Z,53.43
2018-06-18T09:06:57.460Z,49.47
2018-06-18T09:09:26.460Z,53.45
2018-06-18T09:11:54.512Z,49.83
2018-06-18T09:14:22.611Z,50.33
2018-06-18T09:16:50.784Z,51.58
2018-06-18T09:19:18.972Z,52.47
2018-06-18T09:21:47.104Z,51.79
2018-06-18T09:24:15.300Z,52.01
2018-06-18T09:26:44.116Z,52.41
2018-06-18T09:29:12.188Z,54.24
2018-06-18T09:31:45.717Z,50.39
2018-06-18T09:34:13.784Z,47.94
2018-06-18T09:36:41.956Z,48.33
2018-06-18T09:39:10.795Z,49.20
2018-06-18T09:41:39.448Z,47.32
2018-06-18T09:44:07.521Z,49.04
2018-06-18T09:46:35.604Z,49.90
2018-06-18T09:49:08.939Z,47.58
2018-06-18T09:51:42.944Z,49.16
2018-06-18T09:54:16.239Z,50.54
2018-06-18T09:56:49.744Z,50.30
2018-06-18T09:59:23.245Z,48.97
2018-06-18T10:01:51.335Z,49.67
2018-06-18T10:04:19.392Z,49.61
2018-06-18T10:06:48.437Z,47.54
2018-06-18T10:09:16.528Z,49.82
2018-06-18T10:11:44.640Z,47.73
2018-06-18T10:14:12.801Z,48.55
2018-06-18T10:16:41.120Z,45.42
2018-06-18T10:19:09.671Z,46.23
2018-06-18T10:21:37.756Z,46.56
2018-06-18T10:24:05.867Z,46.52
2018-06-18T10:26:33.997Z,45.29
2018-06-18T10:29:02.245Z,44.37
2018-06-18T10:31:30.533Z,44.26
2018-06-18T10:34:04.090Z,46.56
2018-06-18T10:36:37.468Z,46.57
2018-06-18T10:39:13.232Z,43.95
2018-06-18T10:41:46.814Z,42.10
2018-06-18T10:44:15.047Z,43.43
2018-06-18T10:46:43.132Z,44.73
2018-06-18T10:49:11.204Z,46.24
2018-06-18T10:51:43.589Z,44.59
2018-06-18T10:54:11.695Z,43.36
2018-06-18T10:56:40.096Z,45.17
2018-06-18T10:59:08.172Z,43.84
2018-06-18T11:01:36.322Z,43.95
2018-06-18T11:04:04.492Z,47.21
2018-06-18T11:06:36.376Z,43.24
2018-06-18T11:09:07.699Z,42.66
2018-06-18T11:11:37.161Z,44.01
2018-06-18T11:14:05.393Z,44.61
2018-06-18T11:16:34.321Z,43.56
2018-06-18T11:19:07.684Z,45.58
2018-06-18T11:21:41.232Z,44.13
2018-06-18T11:25:17.320Z,42.50
2018-06-18T11:27:45.603Z,42.30
2018-06-18T11:30:13.960Z,42.22
2018-06-18T11:32:42.101Z,42.65
2018-06-18T11:35:10.191Z,42.27
2018-06-18T11:37:38.294Z,42.23
2018-06-18T11:40:06.784Z,45.06
2018-06-18T11:42:34.954Z,45.05
2018-06-18T11:45:03.045Z,43.31
2018-06-18T11:47:31.109Z,42.81
2018-06-18T11:49:59.253Z,44.96
2018-06-18T11:52:27.532Z,44.78
2018-06-18T11:54:55.688Z,43.69
2018-06-18T11:57:24.040Z,43.08
2018-06-18T11:59:57.516Z,44.40
2018-06-18T12:02:31.100Z,42.88
2018-06-18T12:05:04.540Z,41.98
2018-06-18T12:07:37.940Z,43.04
2018-06-18T12:10:06.180Z,43.27
2018-06-18T12:12:34.348Z,41.57
2018-06-18T12:15:02.440Z,43.22
2018-06-18T12:17:30.515Z,42.26
2018-06-18T12:19:58.696Z,43.02
2018-06-18T12:22:26.937Z,41.80
2018-06-18T12:24:55.320Z,44.06
2018-06-18T12:27:26.528Z,43.81
2018-06-18T12:29:54.907Z,42.03
2018-06-18T12:32:22.980Z,40.84
2018-06-18T12:34:51.229Z,41.75
2018-06-18T12:37:20.555Z,40.98
2018-06-18T12:39:50.089Z,40.51
2018-06-18T12:42:18.268Z,41.25
2018-06-18T12:44:51.830Z,39.89
2018-06-18T12:47:25.411Z,38.72
2018-06-18T12:49:59.182Z,38.49
2018-06-18T12:52:32.675Z,39.36
2018-06-18T12:55:06.023Z,39.92
2018-06-18T12:57:34.152Z,39.72
2018-06-18T13:00:02.224Z,42.11
2018-06-18T13:02:36.656Z,39.19
2018-06-18T13:05:04.731Z,38.45
2018-06-18T13:07:33.009Z,42.09
2018-06-18T13:10:01.215Z,38.63
2018-06-18T13:12:29.332Z,38.58
2018-06-18T13:14:58.550Z,41.17
2018-06-18T13:17:27.415Z,41.36
2018-06-18T13:19:55.521Z,41.06
2018-06-18T13:22:23.599Z,39.43
2018-06-18T13:24:51.688Z,40.26
2018-06-18T13:27:20.717Z,41.20
2018-06-18T13:29:48.787Z,39.74
2018-06-18T13:32:16.876Z,40.01
2018-06-18T13:34:44.953Z,40.02
2018-06-18T13:37:18.435Z,40.02
2018-06-18T13:40:55.745Z,39.23
2018-06-18T13:43:29.191Z,40.41
2018-06-18T13:46:02.807Z,41.16
2018-06-18T13:48:36.291Z,42.25
2018-06-18T13:51:04.830Z,42.11
2018-06-18T13:53:35.144Z,41.61
2018-06-18T13:56:03.226Z,42.42
2018-06-18T13:58:31.311Z,41.50
2018-06-18T14:00:59.548Z,41.13
2018-06-18T14:03:27.704Z,41.50
2018-06-18T14:05:55.771Z,40.36
2018-06-18T14:08:23.896Z,42.97
2018-06-18T14:10:52.000Z,42.88
2018-06-18T14:13:20.092Z,40.98
2018-06-18T14:15:48.164Z,44.15
2018-06-18T14:18:16.247Z,40.14
2018-06-18T14:20:44.446Z,42.20
2018-06-18T14:23:14.086Z,41.00
2018-06-18T14:25:42.200Z,42.34
2018-06-18T14:28:10.428Z,43.03
2018-06-18T14:30:43.814Z,40.97
2018-06-18T14:33:17.417Z,41.05
2018-06-18T14:35:51.459Z,43.17
2018-06-18T14:38:24.913Z,41.79
2018-06-18T14:40:53.105Z,42.56
2018-06-18T14:43:21.386Z,42.82
2018-06-18T14:45:49.765Z,42.06
2018-06-18T14:48:18.074Z,41.44
2018-06-18T14:50:46.073Z,42.67
2018-06-18T14:53:14.147Z,43.25
2018-06-18T14:55:43.463Z,42.41
2018-06-18T14:58:12.088Z,41.65
2018-06-18T15:00:40.180Z,43.38
2018-06-18T15:03:08.368Z,42.59
2018-06-18T15:05:41.615Z,42.79
2018-06-18T15:08:09.783Z,43.58
2018-06-18T15:10:43.216Z,42.77
2018-06-18T15:13:13.269Z,42.12
2018-06-18T15:15:46.911Z,44.18
2018-06-18T15:18:14.928Z,42.76
2018-06-18T15:20:43.158Z,42.80
2018-06-18T15:23:11.255Z,43.78
2018-06-18T15:25:46.428Z,43.27
2018-06-18T15:28:14.504Z,42.86
2018-06-18T15:30:42.579Z,44.63
2018-06-18T15:33:10.658Z,42.74
2018-06-18T15:35:38.756Z,44.10
2018-06-18T15:38:06.913Z,44.27
2018-06-18T15:40:35.005Z,42.78
2018-06-18T15:43:03.100Z,42.87
2018-06-18T15:45:31.816Z,43.01
2018-06-18T15:47:59.979Z,42.90
2018-06-18T15:50:28.141Z,44.13
2018-06-18T15:52:56.144Z,43.67
2018-06-18T15:55:24.228Z,43.44
2018-06-18T15:57:52.596Z,44.23
2018-06-18T16:00:20.732Z,43.14
2018-06-18T16:02:48.883Z,43.30
2018-06-18T16:05:17.006Z,44.19
2018-06-18T16:07:45.080Z,43.60
2018-06-18T16:10:13.249Z,43.67
2018-06-18T16:12:41.316Z,43.64
2018-06-18T16:15:09.414Z,42.76
2018-06-18T16:17:37.483Z,45.25
2018-06-18T16:20:05.567Z,45.24
2018-06-18T16:22:34.246Z,46.05
2018-06-18T16:25:02.777Z,45.40
2018-06-18T16:27:30.832Z,44.43
2018-06-18T16:30:00.860Z,44.14
2018-06-18T16:32:29.258Z,42.24
2018-06-18T16:34:57.557Z,43.40
2018-06-18T16:37:25.713Z,43.79
2018-06-18T16:39:53.885Z,44.70
2018-06-18T16:42:22.084Z,45.50
2018-06-18T16:44:50.172Z,45.25
2018-06-18T16:47:18.640Z,43.48
2018-06-18T16:49:46.715Z,44.08
2018-06-18T16:52:14.788Z,45.13
2018-06-18T16:54:42.947Z,42.93
2018-06-18T16:57:11.075Z,43.97
2018-06-18T16:59:39.280Z,41.71
2018-06-18T17:02:07.375Z,43.45
2018-06-18T17:04:35.467Z,43.20
2018-06-18T17:07:04.296Z,44.23
2018-06-18T17:09:33.031Z,44.25
2018-06-18T17:12:01.200Z,43.51
2018-06-18T17:14:29.360Z,44.58
2018-06-18T17:16:58.502Z,45.73
2018-06-18T17:19:32.563Z,48.09
2018-06-18T17:22:00.664Z,44.76
2018-06-18T17:24:28.988Z,44.74
2018-06-18T17:26:57.069Z,44.59
2018-06-18T17:29:25.180Z,44.25
2018-06-18T17:31:53.676Z,44.32
2018-06-18T17:34:21.785Z,45.51
2018-06-18T17:36:49.898Z,44.68
2018-06-18T17:39:17.964Z,45.26
2018-06-18T17:41:46.065Z,47.46
2018-06-18T17:44:14.290Z,48.49
2018-06-18T17:46:42.351Z,48.14
2018-06-18T17:49:10.443Z,48.85
2018-06-18T17:51:39.124Z,48.87
2018-06-18T17:54:07.325Z,49.99
2018-06-18T17:56:35.677Z,50.63
2018-06-18T17:59:03.872Z,52.23
2018-06-18T18:01:31.945Z,51.63
2018-06-18T18:04:00.292Z,52.42
2018-06-18T18:06:28.580Z,52.44
2018-06-18T18:08:56.795Z,51.89
2018-06-18T18:11:25.996Z,52.52
2018-06-18T18:13:54.339Z,53.26
2018-06-18T18:16:22.488Z,53.32
2018-06-18T18:18:50.717Z,53.61
2018-06-18T18:21:19.059Z,54.05
2018-06-18T18:23:47.211Z,54.32
2018-06-18T18:26:15.308Z,54.55
2018-06-18T18:28:43.439Z,54.49
2018-06-18T18:31:11.640Z,54.99
2018-06-18T18:33:40.012Z,54.55
2018-06-18T18:36:08.102Z,54.54
2018-06-18T18:38:37.539Z,54.28
2018-06-18T18:41:05.759Z,54.17
2018-06-18T18:43:35.468Z,55.11
2018-06-18T18:46:03.615Z,55.02
2018-06-18T18:48:31.720Z,55.36
2018-06-18T18:50:59.803Z,55.55
2018-06-18T18:53:27.945Z,56.10
2018-06-18T18:56:07.907Z,55.65
2018-06-18T18:59:43.688Z,55.48
2018-06-18T19:02:11.827Z,56.08
2018-06-18T19:04:49.906Z,56.75
2018-06-18T19:07:21.551Z,57.20
2018-06-18T19:09:53.619Z,57.29
2018-06-18T19:12:21.860Z,57.10
2018-06-18T19:14:50.111Z,57.71
2018-06-18T19:17:18.195Z,57.62
2018-06-18T19:19:51.419Z,59.09
2018-06-18T19:22:19.804Z,58.42
2018-06-18T19:24:47.881Z,58.70
2018-06-18T19:27:15.953Z,58.97
2018-06-18T19:29:44.043Z,59.74
2018-06-18T19:32:12.221Z,60.23
2018-06-18T19:34:40.457Z,60.01
2018-06-18T19:37:09.044Z,61.27
2018-06-18T19:39:42.148Z,61.62
2018-06-18T19:42:10.308Z,62.13
2018-06-18T19:44:39.372Z,63.16
2018-06-18T19:47:12.516Z,63.02
2018-06-18T19:49:40.608Z,63.87
2018-06-18T19:52:08.739Z,64.24
2018-06-18T19:54:40.964Z,64.28
2018-06-18T19:57:09.915Z,64.76
2018-06-18T19:59:38.195Z,64.12
2018-06-18T20:02:06.373Z,65.00
2018-06-18T20:04:34.874Z,65.09
2018-06-18T20:07:07.986Z,65.26
2018-06-18T20:09:36.168Z,65.40
2018-06-18T20:12:04.368Z,64.51
2018-06-18T20:14:32.521Z,64.66
2018-06-18T20:17:01.462Z,64.98
2018-06-18T20:19:30.443Z,65.00
2018-06-18T20:21:59.571Z,65.29
2018-06-18T20:24:29.514Z,65.48
2018-06-18T20:26:58.960Z,65.60
2018-06-18T20:29:28.261Z,65.87
2018-06-18T20:31:56.862Z,66.40
2018-06-18T20:34:25.341Z,68.27
2018-06-18T20:36:54.872Z,69.49
2018-06-18T20:39:24.178Z,69.21
2018-06-18T20:41:54.413Z,69.62
2018-06-18T20:44:25.228Z,69.96
2018-06-18T20:46:55.997Z,70.10
2018-06-18T20:49:24.371Z,71.39
2018-06-18T20:51:53.308Z,71.70
2018-06-18T20:54:21.687Z,71.49
2018-06-18T20:56:50.407Z,71.12
2018-06-18T20:59:19.703Z,71.60
2018-06-18T21:01:48.026Z,71.62
2018-06-18T21:04:16.836Z,71.81
2018-06-18T21:06:46.817Z,71.25
2018-06-18T21:09:16.003Z,72.41
2018-06-18T21:11:44.761Z,72.27
2018-06-18T21:14:14.700Z,73.27
2018-06-18T21:16:46.456Z,73.19
2018-06-18T21:19:15.714Z,73.38
2018-06-18T21:21:48.200Z,73.84
2018-06-18T21:24:17.160Z,73.82
2018-06-18T21:26:46.792Z,73.89
2018-06-18T21:29:15.769Z,74.40
2018-06-18T21:31:46.515Z,75.15
2018-06-18T21:34:16.323Z,75.39
2018-06-18T21:36:45.226Z,75.43
2018-06-18T21:39:14.858Z,75.42
2018-06-18T21:41:44.474Z,75.07
2018-06-18T21:44:18.096Z,75.50
2018-06-18T21:46:47.077Z,76.35
2018-06-18T21:49:15.793Z,76.14
2018-06-18T21:51:45.060Z,76.77
2018-06-18T21:54:14.676Z,77.44
2018-06-18T21:56:42.929Z,78.39
2018-06-18T22:02:37.293Z,78.42
2018-06-18T22:05:06.502Z,78.81
2018-06-18T22:07:35.769Z,78.51
2018-06-18T22:10:04.782Z,78.49
2018-06-18T22:12:33.342Z,79.69
2018-06-18T22:15:02.542Z,79.23
2018-06-18T22:17:30.846Z,78.98
2018-06-18T22:19:59.253Z,78.71
2018-06-18T22:22:27.569Z,79.22
2018-06-18T22:24:56.204Z,79.31
2018-06-18T22:27:25.933Z,79.24
2018-06-18T22:29:54.500Z,79.76
2018-06-18T22:32:23.220Z,79.54
2018-06-18T22:34:52.347Z,80.37
2018-06-18T22:37:20.994Z,80.86
2018-06-18T22:39:50.048Z,80.81
2018-06-18T22:42:18.602Z,81.30
2018-06-18T22:44:47.895Z,80.91
2018-06-18T22:47:16.910Z,80.89
2018-06-18T22:49:46.684Z,80.53
2018-06-18T22:52:15.139Z,80.27
2018-06-18T22:54:50.472Z,79.86
2018-06-18T22:57:21.053Z,79.72
2018-06-18T22:59:51.017Z,79.86
2018-06-18T23:02:22.924Z,80.21
2018-06-18T23:04:51.826Z,79.94
2018-06-18T23:07:20.095Z,80.56
2018-06-18T23:09:50.245Z,80.30
2018-06-18T23:12:19.562Z,79.95
2018-06-18T23:14:48.826Z,80.57
2018-06-18T23:17:17.817Z,80.53
2018-06-18T23:19:46.854Z,80.13
2018-06-18T23:22:15.538Z,79.80
2018-06-18T23:24:45.753Z,80.47
2018-06-18T23:27:15.537Z,80.11
2018-06-18T23:29:45.346Z,79.25
2018-06-18T23:32:13.777Z,79.40
2018-06-18T23:34:43.053Z,79.60
2018-06-18T23:37:12.793Z,80.29
2018-06-18T23:39:42.132Z,79.62
2018-06-18T23:42:12.096Z,80.07
2018-06-18T23:44:41.353Z,79.80
2018-06-18T23:47:13.241Z,79.34
2018-06-18T23:49:42.177Z,79.45
2018-06-18T23:52:11.423Z,79.31
2018-06-18T23:54:41.267Z,80.02
2018-06-18T23:57:12.745Z,80.11
2018-06-18T23:59:41.712Z,80.61
